TAF KHIE
AMD KHIE 270900Z 2709/2806 29012G19KT 6SM -SN BR OVC020 FM271600 28010KT P6SM BKN015 FM272100 27010G21KT P6SM BKN025=
METAR KHIE
WC KHIE
WS KHIE
WV KHIE